createdAt,value
2022-10-19T00:00:34.303Z,101426.36
2022-10-19T00:03:26.219Z,101424.59
2022-10-19T00:05:58.431Z,101411.26
2022-10-19T00:08:30.461Z,101421.69
2022-10-19T00:11:03.582Z,101423.36
2022-10-19T00:13:35.986Z,101433.05
2022-10-19T00:16:13.475Z,101427.90
2022-10-19T00:18:46.692Z,101432.33
2022-10-19T00:21:20.942Z,101435.72
2022-10-19T00:23:53.543Z,101435.21
2022-10-19T00:26:25.881Z,101434.16
2022-10-19T00:28:59.121Z,101440.42
2022-10-19T00:31:31.029Z,101446.01
2022-10-19T00:34:03.116Z,101439.10
2022-10-19T00:36:37.902Z,101436.44
2022-10-19T00:39:09.213Z,101431.26
2022-10-19T00:41:41.737Z,101422.02
2022-10-19T00:44:44.221Z,101427.31
2022-10-19T00:47:16.541Z,101410.17
2022-10-19T00:49:49.498Z,101424.63
2022-10-19T00:52:25.140Z,101428.29
2022-10-19T00:54:59.030Z,101431.60
2022-10-19T00:57:32.650Z,101432.63
2022-10-19T01:00:09.071Z,101428.83
2022-10-19T01:02:43.959Z,101431.25
2022-10-19T01:05:16.717Z,101433.14
2022-10-19T01:07:50.146Z,101439.95
2022-10-19T01:10:25.991Z,101433.35
2022-10-19T01:13:22.425Z,101428.65
2022-10-19T01:16:04.974Z,101423.17
2022-10-19T01:18:46.099Z,101414.48
2022-10-19T01:21:27.445Z,101412.02
2022-10-19T01:24:37.120Z,101410.27
2022-10-19T01:27:44.037Z,101412.52
2022-10-19T01:30:22.943Z,101411.66
2022-10-19T01:33:10.511Z,101408.95
2022-10-19T01:35:52.027Z,101406.17
2022-10-19T01:38:34.576Z,101406.15
2022-10-19T01:41:16.716Z,101397.56
2022-10-19T01:43:56.508Z,101408.41
2022-10-19T01:46:33.656Z,101407.85
2022-10-19T01:49:13.591Z,101410.64
2022-10-19T01:51:51.234Z,101403.56
2022-10-19T01:54:26.193Z,101401.04
2022-10-19T01:56:58.211Z,101403.91
2022-10-19T01:59:31.432Z,101386.69
2022-10-19T02:02:06.963Z,101394.10
2022-10-19T02:04:41.531Z,101394.08
2022-10-19T02:07:14.366Z,101393.38
2022-10-19T02:09:46.345Z,101393.64
2022-10-19T02:12:21.906Z,101396.59
2022-10-19T02:14:59.019Z,101396.27
2022-10-19T02:17:35.839Z,101390.10
2022-10-19T02:20:09.450Z,101394.59
2022-10-19T02:22:41.735Z,101392.68
2022-10-19T02:25:14.913Z,101377.56
2022-10-19T02:27:47.731Z,101394.45
2022-10-19T02:30:21.849Z,101389.78
2022-10-19T02:32:53.964Z,101394.66
2022-10-19T02:35:26.014Z,101396.16
2022-10-19T02:38:02.951Z,101390.52
2022-10-19T02:40:38.680Z,101387.33
2022-10-19T02:43:15.269Z,101394.66
2022-10-19T02:45:53.990Z,101395.35
2022-10-19T02:48:30.035Z,101395.48
2022-10-19T02:51:02.871Z,101392.73
2022-10-19T02:53:35.085Z,101393.27
2022-10-19T02:56:09.449Z,101391.02
2022-10-19T02:58:41.603Z,101392.29
2022-10-19T03:01:16.318Z,101390.13
2022-10-19T03:03:48.606Z,101392.47
2022-10-19T03:06:20.770Z,101392.84
2022-10-19T03:08:54.217Z,101386.48
2022-10-19T03:11:27.148Z,101389.02
2022-10-19T03:14:06.937Z,101390.48
2022-10-19T03:16:44.443Z,101388.54
2022-10-19T03:19:18.903Z,101387.98
2022-10-19T03:21:51.207Z,101388.13
2022-10-19T03:24:23.098Z,101389.81
2022-10-19T03:26:55.416Z,101377.77
2022-10-19T03:29:27.614Z,101386.46
2022-10-19T03:31:59.743Z,101368.51
2022-10-19T03:34:31.954Z,101387.30
2022-10-19T03:37:03.928Z,101385.11
2022-10-19T03:39:36.161Z,101384.27
2022-10-19T03:42:09.020Z,101382.48
2022-10-19T03:44:40.923Z,101377.89
2022-10-19T03:47:12.866Z,101382.23
2022-10-19T03:49:44.755Z,101379.67
2022-10-19T03:52:16.766Z,101379.50
2022-10-19T03:54:50.978Z,101385.20
2022-10-19T03:57:23.116Z,101385.75
2022-10-19T03:59:54.991Z,101383.30
2022-10-19T04:02:27.007Z,101381.63
2022-10-19T04:04:58.866Z,101382.70
2022-10-19T04:07:30.961Z,101387.67
2022-10-19T04:10:02.966Z,101385.27
2022-10-19T04:12:35.791Z,101385.98
2022-10-19T04:15:08.995Z,101387.76
2022-10-19T04:17:41.217Z,101374.68
2022-10-19T04:20:14.340Z,101386.92
2022-10-19T04:22:46.278Z,101389.63
2022-10-19T04:25:18.510Z,101389.77
2022-10-19T04:27:50.682Z,101387.58
2022-10-19T04:30:22.690Z,101385.23
2022-10-19T04:32:54.863Z,101388.74
2022-10-19T04:35:27.180Z,101397.26
2022-10-19T04:37:59.598Z,101391.77
2022-10-19T04:40:31.679Z,101396.40
2022-10-19T04:43:03.699Z,101399.85
2022-10-19T04:45:37.596Z,101399.77
2022-10-19T04:48:09.784Z,101397.81
2022-10-19T04:50:41.728Z,101404.60
2022-10-19T04:53:13.769Z,101401.55
2022-10-19T04:55:45.955Z,101395.08
2022-10-19T04:58:18.216Z,101395.73
2022-10-19T05:00:50.382Z,101392.33
2022-10-19T05:03:22.330Z,101395.66
2022-10-19T05:05:54.192Z,101399.55
2022-10-19T05:08:26.343Z,101400.55
2022-10-19T05:11:01.224Z,101402.27
2022-10-19T05:13:34.203Z,101400.83
2022-10-19T05:16:08.251Z,101405.45
2022-10-19T05:18:40.402Z,101405.08
2022-10-19T05:21:14.162Z,101401.59
2022-10-19T05:23:46.496Z,101402.98
2022-10-19T05:26:20.431Z,101399.69
2022-10-19T05:28:56.565Z,101402.95
2022-10-19T05:31:30.649Z,101408.42
2022-10-19T05:34:04.551Z,101404.50
2022-10-19T05:36:38.896Z,101404.48
2022-10-19T05:39:14.342Z,101411.02
2022-10-19T05:41:47.764Z,101417.34
2022-10-19T05:44:22.661Z,101417.80
2022-10-19T05:46:54.838Z,101417.12
2022-10-19T05:49:27.570Z,101412.45
2022-10-19T05:51:59.561Z,101424.27
2022-10-19T05:54:32.074Z,101423.46
2022-10-19T05:57:04.250Z,101422.15
2022-10-19T05:59:36.769Z,101426.30
2022-10-19T06:02:14.144Z,101429.47
2022-10-19T06:04:46.076Z,101429.04
2022-10-19T06:07:17.970Z,101433.23
2022-10-19T06:09:50.108Z,101441.34
2022-10-19T06:12:24.970Z,101446.77
2022-10-19T06:14:57.232Z,101448.59
2022-10-19T06:17:30.929Z,101444.54
2022-10-19T06:20:02.951Z,101443.30
2022-10-19T06:22:34.880Z,101450.27
2022-10-19T06:25:07.983Z,101438.82
2022-10-19T06:27:40.162Z,101453.30
2022-10-19T06:30:13.696Z,101456.22
2022-10-19T06:32:46.214Z,101456.96
2022-10-19T06:35:18.422Z,101457.11
2022-10-19T06:37:50.796Z,101460.85
2022-10-19T06:40:23.023Z,101460.48
2022-10-19T06:42:55.729Z,101465.00
2022-10-19T06:45:31.115Z,101468.61
2022-10-19T06:48:07.666Z,101473.56
2022-10-19T06:50:40.122Z,101473.38
2022-10-19T06:53:12.118Z,101479.04
2022-10-19T06:55:44.229Z,101475.34
2022-10-19T06:58:16.233Z,101482.11
2022-10-19T07:00:57.231Z,101483.19
2022-10-19T07:03:30.850Z,101483.35
2022-10-19T07:06:05.769Z,101490.58
2022-10-19T07:08:36.968Z,101479.89
2022-10-19T07:11:11.204Z,101481.20
2022-10-19T07:13:43.241Z,101493.77
2022-10-19T07:16:20.587Z,101487.66
2022-10-19T07:18:54.213Z,101495.73
2022-10-19T07:21:26.345Z,101502.63
2022-10-19T07:23:58.258Z,101497.77
2022-10-19T07:26:31.462Z,101505.13
2022-10-19T07:29:04.222Z,101506.45
2022-10-19T07:31:36.443Z,101501.81
2022-10-19T07:34:11.332Z,101502.28
2022-10-19T07:36:45.613Z,101503.98
2022-10-19T07:39:18.313Z,101507.01
2022-10-19T07:41:50.348Z,101505.10
2022-10-19T07:44:22.656Z,101500.73
2022-10-19T07:46:54.858Z,101495.61
2022-10-19T07:49:26.982Z,101511.84
2022-10-19T07:51:59.184Z,101517.23
2022-10-19T07:54:31.447Z,101515.86
2022-10-19T07:57:03.922Z,101520.52
2022-10-19T07:59:36.880Z,101522.83
2022-10-19T08:02:15.003Z,101525.19
2022-10-19T08:05:07.366Z,101521.45
2022-10-19T08:07:39.710Z,101518.65
2022-10-19T08:10:12.593Z,101517.21
2022-10-19T08:12:44.562Z,101524.58
2022-10-19T08:15:16.796Z,101523.20
2022-10-19T08:17:48.678Z,101529.79
2022-10-19T08:20:20.648Z,101524.56
2022-10-19T08:22:56.442Z,101523.52
2022-10-19T08:25:30.849Z,101522.63
2022-10-19T08:28:03.167Z,101518.42
2022-10-19T08:30:37.315Z,101525.94
2022-10-19T08:33:12.525Z,101524.61
2022-10-19T08:35:44.611Z,101537.15
2022-10-19T08:38:16.670Z,101519.06
2022-10-19T08:40:48.995Z,101528.64
2022-10-19T08:43:30.603Z,101531.35
2022-10-19T08:46:12.741Z,101526.55
2022-10-19T08:48:46.638Z,101518.60
2022-10-19T08:51:18.793Z,101517.88
2022-10-19T08:53:56.878Z,101514.66
2022-10-19T08:56:49.990Z,101508.41
2022-10-19T08:59:34.834Z,101509.20
2022-10-19T09:02:16.014Z,101513.55
2022-10-19T09:04:55.074Z,101521.17
2022-10-19T09:07:30.430Z,101525.35
2022-10-19T09:10:05.926Z,101530.55
2022-10-19T09:12:46.656Z,101527.03
2022-10-19T09:15:23.234Z,101527.69
2022-10-19T09:17:55.068Z,101530.41
2022-10-19T09:20:33.410Z,101534.03
2022-10-19T09:23:13.518Z,101540.60
2022-10-19T09:25:45.569Z,101543.26
2022-10-19T09:28:36.622Z,101545.70
2022-10-19T09:31:18.187Z,101547.95
2022-10-19T09:33:55.654Z,101551.20
2022-10-19T09:36:50.363Z,101550.05
2022-10-19T09:39:25.695Z,101557.06
2022-10-19T09:42:19.708Z,101560.31
2022-10-19T09:44:53.215Z,101528.95
2022-10-19T09:47:33.674Z,101565.14
2022-10-19T09:50:19.159Z,101565.32
2022-10-19T09:52:50.059Z,101566.72
2022-10-19T09:55:29.619Z,101570.54
2022-10-19T09:58:07.510Z,101570.45
2022-10-19T10:00:42.557Z,101575.98
2022-10-19T10:03:27.145Z,101573.54
2022-10-19T10:06:03.322Z,101574.47
2022-10-19T10:08:38.948Z,101572.83
2022-10-19T10:11:14.357Z,101576.55
2022-10-19T10:13:51.760Z,101572.92
2022-10-19T10:16:26.983Z,101575.73
2022-10-19T10:19:00.825Z,101578.27
2022-10-19T10:21:36.516Z,101579.44
2022-10-19T10:24:19.777Z,101576.60
2022-10-19T10:26:54.674Z,101572.84
2022-10-19T10:29:29.024Z,101574.64
2022-10-19T10:32:05.333Z,101572.69
2022-10-19T10:34:58.361Z,101571.79
2022-10-19T10:37:40.117Z,101576.32
2022-10-19T10:40:23.813Z,101578.47
2022-10-19T10:43:03.052Z,101580.31
2022-10-19T10:45:43.626Z,101564.11
2022-10-19T10:48:28.285Z,101579.88
2022-10-19T10:51:01.886Z,101580.89
2022-10-19T10:53:39.882Z,101592.75
2022-10-19T10:56:27.301Z,101585.45
2022-10-19T10:59:04.105Z,101581.59
2022-10-19T11:01:42.253Z,101586.59
2022-10-19T11:04:20.068Z,101605.16
2022-10-19T11:06:59.049Z,101611.86
2022-10-19T11:09:36.892Z,101613.16
2022-10-19T11:12:14.988Z,101612.94
2022-10-19T11:14:50.842Z,101617.94
2022-10-19T11:17:26.990Z,101614.72
2022-10-19T11:19:59.540Z,101623.33
2022-10-19T11:22:39.467Z,101625.95
2022-10-19T11:25:27.748Z,101631.17
2022-10-19T11:28:22.688Z,101622.87
2022-10-19T11:31:03.544Z,101624.04
2022-10-19T11:33:49.861Z,101625.15
2022-10-19T11:36:40.246Z,101625.59
2022-10-19T11:39:37.128Z,101611.36
2022-10-19T11:42:20.134Z,101617.40
2022-10-19T11:45:04.544Z,101608.51
2022-10-19T11:47:56.472Z,101606.17
2022-10-19T11:50:46.600Z,101601.57
2022-10-19T11:53:37.828Z,101600.39
2022-10-19T11:56:14.751Z,101605.12
2022-10-19T11:58:58.184Z,101605.39
2022-10-19T12:01:47.710Z,101600.83
2022-10-19T12:04:35.604Z,101600.02
2022-10-19T12:07:21.240Z,101593.20
2022-10-19T12:10:04.642Z,101596.04
2022-10-19T12:12:40.066Z,101600.63
2022-10-19T12:15:30.738Z,101598.95
2022-10-19T12:18:11.880Z,101604.64
2022-10-19T12:20:50.205Z,101600.85
2022-10-19T12:23:29.843Z,101598.47
2022-10-19T12:26:04.868Z,101600.80
2022-10-19T12:28:40.175Z,101598.36
2022-10-19T12:31:13.898Z,101598.87
2022-10-19T12:33:50.809Z,101602.45
2022-10-19T12:36:33.205Z,101599.73
2022-10-19T12:39:13.453Z,101603.52
2022-10-19T12:41:53.876Z,101601.27
2022-10-19T12:45:05.996Z,101590.84
2022-10-19T12:47:38.119Z,101592.77
2022-10-19T12:50:10.900Z,101593.20
2022-10-19T12:52:46.034Z,101596.02
2022-10-19T12:55:34.738Z,101595.25
2022-10-19T12:58:20.530Z,101598.90
2022-10-19T13:01:02.674Z,101605.49
2022-10-19T13:03:38.015Z,101585.20
2022-10-19T13:06:14.765Z,101603.56
2022-10-19T13:08:56.558Z,101599.52
2022-10-19T13:11:28.976Z,101595.06
2022-10-19T13:14:04.146Z,101595.98
2022-10-19T13:16:43.240Z,101595.64
2022-10-19T13:19:23.168Z,101590.08
2022-10-19T13:22:03.854Z,101592.61
2022-10-19T13:24:38.006Z,101588.33
2022-10-19T13:27:37.409Z,101583.92
2022-10-19T13:30:52.983Z,101585.96
2022-10-19T13:33:55.446Z,101596.88
2022-10-19T13:36:28.325Z,101602.60
2022-10-19T13:39:16.962Z,101601.92
2022-10-19T13:41:53.045Z,101608.02
2022-10-19T13:44:29.004Z,101607.59
2022-10-19T13:47:31.588Z,101613.11
2022-10-19T13:50:32.423Z,101618.69
2022-10-19T13:53:33.444Z,101616.05
2022-10-19T13:56:33.834Z,101613.52
2022-10-19T13:59:53.832Z,101620.39
2022-10-19T14:02:59.158Z,101626.70
2022-10-19T14:05:48.521Z,101623.79
2022-10-19T14:08:57.572Z,101620.13
2022-10-19T14:11:32.878Z,101622.83
2022-10-19T14:14:16.225Z,101614.59
2022-10-19T14:17:04.138Z,101618.44
2022-10-19T14:19:47.219Z,101617.25
2022-10-19T14:22:30.260Z,101619.54
2022-10-19T14:25:08.691Z,101620.21
2022-10-19T14:27:41.186Z,101623.15
2022-10-19T14:30:25.867Z,101620.44
2022-10-19T14:33:02.188Z,101618.57
2022-10-19T14:35:37.709Z,101609.96
2022-10-19T14:38:16.800Z,101622.08
2022-10-19T14:40:48.845Z,101613.94
2022-10-19T14:43:24.648Z,101627.70
2022-10-19T14:46:22.760Z,101622.94
2022-10-19T14:49:02.861Z,101620.73
2022-10-19T14:51:41.816Z,101626.87
2022-10-19T14:54:21.965Z,101626.41
2022-10-19T14:56:57.232Z,101619.18
2022-10-19T14:59:33.101Z,101631.16
2022-10-19T15:02:12.946Z,101631.22
2022-10-19T15:04:45.367Z,101632.86
2022-10-19T15:07:25.160Z,101631.80
2022-10-19T15:10:00.065Z,101627.87
2022-10-19T15:12:38.473Z,101629.84
2022-10-19T15:15:18.282Z,101631.88
2022-10-19T15:17:56.033Z,101630.84
2022-10-19T15:20:36.377Z,101636.05
2022-10-19T15:23:34.241Z,101623.38
2022-10-19T15:26:17.602Z,101641.71
2022-10-19T15:28:50.767Z,101642.62
2022-10-19T15:31:26.533Z,101641.23
2022-10-19T15:34:05.388Z,101642.73
2022-10-19T15:36:37.438Z,101645.55
2022-10-19T15:39:33.019Z,101650.79
2022-10-19T15:42:37.548Z,101653.23
2022-10-19T15:45:33.502Z,101640.61
2022-10-19T15:48:49.940Z,101660.06
2022-10-19T15:51:52.452Z,101665.58
2022-10-19T15:54:24.697Z,101663.42
2022-10-19T15:56:57.455Z,101666.91
2022-10-19T15:59:29.424Z,101664.11
2022-10-19T16:02:01.548Z,101672.27
2022-10-19T16:04:33.612Z,101669.02
2022-10-19T16:07:05.641Z,101670.02
2022-10-19T16:09:37.527Z,101670.81
2022-10-19T16:12:10.258Z,101672.85
2022-10-19T16:14:43.490Z,101676.62
2022-10-19T16:17:16.627Z,101682.79
2022-10-19T16:19:49.044Z,101684.42
2022-10-19T16:22:21.379Z,101684.08
2022-10-19T16:24:53.891Z,101692.00
2022-10-19T16:27:26.645Z,101696.34
2022-10-19T16:29:58.904Z,101701.92
2022-10-19T16:32:32.334Z,101700.40
2022-10-19T16:35:04.717Z,101698.05
2022-10-19T16:37:37.173Z,101695.63
2022-10-19T16:40:11.605Z,101699.58
2022-10-19T16:42:43.551Z,101699.45
2022-10-19T16:45:15.678Z,101691.48
2022-10-19T16:47:52.144Z,101705.45
2022-10-19T16:50:25.137Z,101712.30
2022-10-19T16:53:10.786Z,101717.45
2022-10-19T16:55:44.556Z,101719.70
2022-10-19T16:58:16.543Z,101722.48
2022-10-19T17:00:49.054Z,101726.08
2022-10-19T17:03:21.219Z,101730.08
2022-10-19T17:05:53.656Z,101732.95
2022-10-19T17:08:36.769Z,101731.64
2022-10-19T17:11:18.179Z,101732.67
2022-10-19T17:13:52.349Z,101734.73
2022-10-19T17:16:25.427Z,101736.44
2022-10-19T17:18:59.498Z,101737.85
2022-10-19T17:21:34.537Z,101741.83
2022-10-19T17:24:08.139Z,101746.39
2022-10-19T17:26:43.225Z,101749.59
2022-10-19T17:29:15.644Z,101753.31
2022-10-19T17:31:48.046Z,101755.64
2022-10-19T17:34:20.232Z,101758.67
2022-10-19T17:36:52.324Z,101761.75
2022-10-19T17:39:29.109Z,101760.17
2022-10-19T17:42:03.363Z,101763.41
2022-10-19T17:44:35.518Z,101761.53
2022-10-19T17:47:07.547Z,101764.61
2022-10-19T17:49:41.134Z,101764.89
2022-10-19T17:52:13.203Z,101766.58
2022-10-19T17:54:54.751Z,101770.56
2022-10-19T17:57:38.809Z,101767.76
2022-10-19T18:00:12.573Z,101771.09
2022-10-19T18:02:46.819Z,101774.70
2022-10-19T18:05:19.084Z,101775.29
2022-10-19T18:07:51.562Z,101780.13
2022-10-19T18:10:23.713Z,101782.45
2022-10-19T18:12:55.693Z,101788.13
2022-10-19T18:15:27.537Z,101781.29
2022-10-19T18:18:01.134Z,101782.67
2022-10-19T18:20:33.022Z,101784.95
2022-10-19T18:23:04.952Z,101773.66
2022-10-19T18:25:53.332Z,101789.67
2022-10-19T18:28:26.044Z,101786.68
2022-10-19T18:30:58.272Z,101785.75
2022-10-19T18:33:58.072Z,101784.68
2022-10-19T18:36:30.898Z,101786.00
2022-10-19T18:39:06.174Z,101786.88
2022-10-19T18:41:38.751Z,101786.98
2022-10-19T18:44:12.668Z,101789.45
2022-10-19T18:46:46.356Z,101788.96
2022-10-19T18:49:18.511Z,101792.77
2022-10-19T18:51:55.267Z,101793.02
2022-10-19T18:54:28.950Z,101792.77
2022-10-19T18:57:01.035Z,101793.73
2022-10-19T18:59:33.286Z,101794.27
2022-10-19T19:02:07.840Z,101798.20
2022-10-19T19:04:46.024Z,101786.20
2022-10-19T19:07:19.491Z,101804.95
2022-10-19T19:09:52.316Z,101810.66
2022-10-19T19:12:25.152Z,101816.66
2022-10-19T19:14:57.237Z,101816.73
2022-10-19T19:17:29.131Z,101819.45
2022-10-19T19:20:01.142Z,101820.20
2022-10-19T19:22:33.660Z,101822.95
2022-10-19T19:25:07.095Z,101822.27
2022-10-19T19:30:17.539Z,101825.77
2022-10-19T19:32:50.644Z,101825.85
2022-10-19T19:35:22.683Z,101823.25
2022-10-19T19:37:55.397Z,101808.22
2022-10-19T19:40:29.479Z,101822.86
2022-10-19T19:43:03.542Z,101817.04
2022-10-19T19:45:36.166Z,101819.05
2022-10-19T19:48:11.616Z,101826.69
2022-10-19T19:50:49.944Z,101833.95
2022-10-19T19:53:22.401Z,101817.59
2022-10-19T19:55:54.843Z,101831.84
2022-10-19T19:58:27.979Z,101835.29
2022-10-19T20:01:00.349Z,101835.83
2022-10-19T20:03:33.405Z,101835.65
2022-10-19T20:06:05.699Z,101817.70
2022-10-19T20:08:38.159Z,101833.68
2022-10-19T20:11:12.324Z,101839.41
2022-10-19T20:13:44.305Z,101837.63
2022-10-19T20:16:19.823Z,101838.10
2022-10-19T20:18:57.840Z,101836.86
2022-10-19T20:21:32.493Z,101837.13
2022-10-19T20:24:07.609Z,101838.31
2022-10-19T20:26:40.583Z,101836.62
2022-10-19T20:29:13.146Z,101835.63
2022-10-19T20:31:45.306Z,101827.43
2022-10-19T20:34:23.109Z,101849.04
2022-10-19T20:36:58.253Z,101847.17
2022-10-19T20:39:33.254Z,101845.12
2022-10-19T20:42:11.015Z,101838.25
2022-10-19T20:44:44.133Z,101824.30
2022-10-19T20:47:16.434Z,101838.78
2022-10-19T20:49:50.669Z,101843.00
2022-10-19T20:52:24.073Z,101846.58
2022-10-19T20:54:56.056Z,101853.40
2022-10-19T20:57:27.958Z,101837.63
2022-10-19T21:00:00.038Z,101853.58
2022-10-19T21:02:32.319Z,101855.14
2022-10-19T21:05:04.572Z,101854.05
2022-10-19T21:07:36.680Z,101838.11
2022-10-19T21:10:09.831Z,101851.35
2022-10-19T21:12:41.711Z,101852.89
2022-10-19T21:15:14.052Z,101854.83
2022-10-19T21:17:48.011Z,101856.13
2022-10-19T21:20:20.421Z,101858.82
2022-10-19T21:22:52.335Z,101858.67
2022-10-19T21:25:24.491Z,101851.82
2022-10-19T21:27:56.815Z,101866.64
2022-10-19T21:30:28.838Z,101868.83
2022-10-19T21:33:01.014Z,101864.73
2022-10-19T21:35:32.989Z,101867.10
2022-10-19T21:38:05.038Z,101866.05
2022-10-19T21:40:38.677Z,101836.09
2022-10-19T21:43:11.493Z,101864.80
2022-10-19T21:45:43.273Z,101848.89
2022-10-19T21:48:15.114Z,101864.54
2022-10-19T21:50:46.936Z,101863.69
2022-10-19T21:53:22.707Z,101865.38
2022-10-19T21:55:54.996Z,101866.93
2022-10-19T21:58:27.035Z,101871.99
2022-10-19T22:01:06.592Z,101874.48
2022-10-19T22:03:38.766Z,101870.59
2022-10-19T22:06:11.313Z,101869.41
2022-10-19T22:08:45.764Z,101872.33
2022-10-19T22:11:18.162Z,101871.53
2022-10-19T22:13:50.386Z,101874.73
2022-10-19T22:16:23.031Z,101862.60
2022-10-19T22:18:55.447Z,101873.61
2022-10-19T22:21:30.258Z,101875.76
2022-10-19T22:24:01.612Z,101883.27
2022-10-19T22:26:36.499Z,101884.06
2022-10-19T22:29:09.990Z,101881.80
2022-10-19T22:31:42.503Z,101880.81
2022-10-19T22:34:24.566Z,101881.38
2022-10-19T22:37:00.148Z,101885.50
2022-10-19T22:39:34.669Z,101880.50
2022-10-19T22:42:53.689Z,101878.18
2022-10-19T22:45:26.284Z,101880.98
2022-10-19T22:47:58.369Z,101881.14
2022-10-19T22:50:30.586Z,101884.14
2022-10-19T22:53:02.682Z,101889.63
2022-10-19T22:55:35.408Z,101890.66
2022-10-19T22:58:08.567Z,101891.19
2022-10-19T23:00:40.815Z,101890.85
2022-10-19T23:03:13.651Z,101893.23
2022-10-19T23:05:46.176Z,101896.35
2022-10-19T23:08:18.696Z,101895.23
2022-10-19T23:10:50.829Z,101892.44
2022-10-19T23:13:23.352Z,101892.17
2022-10-19T23:15:56.034Z,101889.14
2022-10-19T23:18:28.545Z,101885.74
2022-10-19T23:21:03.007Z,101886.48
2022-10-19T23:23:36.998Z,101878.67
2022-10-19T23:26:12.769Z,101895.63
2022-10-19T23:28:51.065Z,101902.27
2022-10-19T23:31:26.570Z,101902.31
2022-10-19T23:33:59.196Z,101893.89
2022-10-19T23:36:32.482Z,101896.26
2022-10-19T23:39:04.953Z,101901.27
2022-10-19T23:41:36.815Z,101898.88
2022-10-19T23:44:10.367Z,101898.33
2022-10-19T23:46:42.447Z,101896.30
2022-10-19T23:49:14.477Z,101895.61
2022-10-19T23:51:46.330Z,101900.80
2022-10-19T23:54:18.379Z,101901.16
2022-10-19T23:56:50.634Z,101906.02
2022-10-19T23:59:22.747Z,101902.49
